This is the latest recevied weather packets stored in our database for station/object IQ5KG. If no packets are shown the sender has not sent any weather packets the latest 10 day(s).
| Time | Temp. | Humidity | Pressure | Rain* | Wind** | Luminosity | Snow |
|---|---|---|---|---|---|---|---|
| 1777845780 | 14.44° C | 55% | 1019.4 hPa | 0 mm | - | - | - |
| 1777844880 | 14.44° C | 55% | 1019.4 hPa | 0 mm | - | - | - |
| 1777843981 | 14.44° C | 56% | 1019.5 hPa | 0 mm | - | - | - |
| 1777843080 | 15° C | 58% | 1019.3 hPa | 0 mm | - | - | - |
| 1777842180 | 14.44° C | 56% | 1019.2 hPa | 0 mm | - | - | - |
| 1777841280 | 14.44° C | 58% | 1019.2 hPa | 0 mm | - | - | - |
| 1777840380 | 15.56° C | 51% | 1019 hPa | 0 mm | - | - | - |
| 1777839481 | 16.67° C | 42% | 1019.2 hPa | 0 mm | - | - | - |
| 1777838580 | 17.22° C | 41% | 1019 hPa | 0 mm | - | - | - |
| 1777837679 | 17.22° C | 38% | 1019.1 hPa | 0 mm | - | - | - |
| 1777836781 | 17.22° C | 39% | 1019 hPa | 0 mm | - | - | - |
| 1777835880 | 17.22° C | 45% | 1018.8 hPa | 0 mm | - | - | - |
| 1777834979 | 17.22° C | 42% | 1018.6 hPa | 0 mm | - | - | - |
| 1777834079 | 17.22° C | 46% | 1018.3 hPa | 0 mm | - | - | - |
| 1777833179 | 17.22° C | 50% | 1018.4 hPa | 0 mm | - | - | - |
| 1777832279 | 17.22° C | 54% | 1018.6 hPa | 0 mm | - | - | - |
| 1777831379 | 17.78° C | 54% | 1018.5 hPa | 0 mm | - | - | - |
| 1777830479 | 17.78° C | 56% | 1018.5 hPa | 0 mm | - | - | - |
| 1777829578 | 18.33° C | 55% | 1018.2 hPa | 0 mm | - | - | - |
| 1777828678 | 18.89° C | 52% | 1018.1 hPa | 0 mm | - | - | - |
| 1777827776 | 19.44° C | 51% | 1018.2 hPa | 0 mm | - | - | - |
| 1777826877 | 20° C | 47% | 1018.4 hPa | 0 mm | - | - | - |
| 1777825975 | 21.11° C | 44% | 1018.2 hPa | 0 mm | - | - | - |
| 1777825076 | 22.78° C | 42% | 1018.2 hPa | 0 mm | - | - | - |
| 1777824176 | 22.78° C | 43% | 1018.1 hPa | 0 mm | - | - | - |
* Rain latest hour (hover to see other rain measurements)
** Current wind speed in m/s (hover to see current wind gust speed)